sensor_id;sensor_type;location;lat;lon;timestamp;P1;durP1;ratioP1;P2;durP2;ratioP2
37983;SDS011;64625;50.882;4.376;2023-04-23T00:01:14;25.67;;;18.30;;
37983;SDS011;64625;50.882;4.376;2023-04-23T00:03:41;26.90;;;18.85;;
37983;SDS011;64625;50.882;4.376;2023-04-23T00:06:08;24.42;;;17.40;;
37983;SDS011;64625;50.882;4.376;2023-04-23T00:08:38;23.35;;;16.17;;
37983;SDS011;64625;50.882;4.376;2023-04-23T00:11:05;24.45;;;15.95;;
37983;SDS011;64625;50.882;4.376;2023-04-23T00:13:31;27.70;;;16.48;;
37983;SDS011;64625;50.882;4.376;2023-04-23T00:15:57;28.65;;;17.95;;
37983;SDS011;64625;50.882;4.376;2023-04-23T00:18:24;26.80;;;16.77;;
37983;SDS011;64625;50.882;4.376;2023-04-23T00:20:50;32.75;;;17.20;;
37983;SDS011;64625;50.882;4.376;2023-04-23T00:23:16;28.77;;;18.00;;
37983;SDS011;64625;50.882;4.376;2023-04-23T00:25:42;30.13;;;18.60;;
37983;SDS011;64625;50.882;4.376;2023-04-23T00:28:07;31.13;;;19.30;;
37983;SDS011;64625;50.882;4.376;2023-04-23T00:30:33;31.58;;;19.45;;
37983;SDS011;64625;50.882;4.376;2023-04-23T00:32:59;32.67;;;19.73;;
37983;SDS011;64625;50.882;4.376;2023-04-23T00:35:25;36.63;;;21.77;;
37983;SDS011;64625;50.882;4.376;2023-04-23T00:37:51;35.92;;;21.13;;
37983;SDS011;64625;50.882;4.376;2023-04-23T00:40:16;34.25;;;20.70;;
37983;SDS011;64625;50.882;4.376;2023-04-23T00:42:42;32.78;;;20.55;;
37983;SDS011;64625;50.882;4.376;2023-04-23T00:45:09;32.67;;;20.52;;
37983;SDS011;64625;50.882;4.376;2023-04-23T00:47:36;26.70;;;17.70;;
37983;SDS011;64625;50.882;4.376;2023-04-23T00:50:04;25.83;;;16.55;;
37983;SDS011;64625;50.882;4.376;2023-04-23T00:52:32;24.73;;;16.40;;
37983;SDS011;64625;50.882;4.376;2023-04-23T00:54:58;22.42;;;15.25;;
37983;SDS011;64625;50.882;4.376;2023-04-23T00:57:24;23.17;;;14.23;;
37983;SDS011;64625;50.882;4.376;2023-04-23T00:59:50;20.60;;;13.63;;
37983;SDS011;64625;50.882;4.376;2023-04-23T01:02:19;21.45;;;14.27;;
37983;SDS011;64625;50.882;4.376;2023-04-23T01:04:45;26.08;;;14.32;;
37983;SDS011;64625;50.882;4.376;2023-04-23T01:07:15;18.70;;;13.30;;
37983;SDS011;64625;50.882;4.376;2023-04-23T01:09:42;19.50;;;12.30;;
37983;SDS011;64625;50.882;4.376;2023-04-23T01:12:08;20.95;;;12.95;;
37983;SDS011;64625;50.882;4.376;2023-04-23T01:14:35;18.00;;;12.18;;
37983;SDS011;64625;50.882;4.376;2023-04-23T01:17:02;20.42;;;13.45;;
37983;SDS011;64625;50.882;4.376;2023-04-23T01:19:28;22.42;;;11.27;;
37983;SDS011;64625;50.882;4.376;2023-04-23T01:21:53;18.55;;;12.52;;
37983;SDS011;64625;50.882;4.376;2023-04-23T01:24:20;21.90;;;13.73;;
37983;SDS011;64625;50.882;4.376;2023-04-23T01:26:46;21.88;;;13.07;;
37983;SDS011;64625;50.882;4.376;2023-04-23T01:29:12;19.33;;;13.20;;
37983;SDS011;64625;50.882;4.376;2023-04-23T01:31:38;17.23;;;13.00;;
37983;SDS011;64625;50.882;4.376;2023-04-23T01:34:05;28.70;;;13.43;;
37983;SDS011;64625;50.882;4.376;2023-04-23T01:36:32;17.20;;;12.50;;
37983;SDS011;64625;50.882;4.376;2023-04-23T01:38:59;16.00;;;10.82;;
37983;SDS011;64625;50.882;4.376;2023-04-23T01:41:28;22.05;;;13.10;;
37983;SDS011;64625;50.882;4.376;2023-04-23T01:43:54;20.20;;;12.43;;
37983;SDS011;64625;50.882;4.376;2023-04-23T01:46:21;19.52;;;12.65;;
37983;SDS011;64625;50.882;4.376;2023-04-23T01:48:47;16.67;;;11.75;;
37983;SDS011;64625;50.882;4.376;2023-04-23T01:51:13;21.02;;;11.48;;
37983;SDS011;64625;50.882;4.376;2023-04-23T01:53:39;19.23;;;11.38;;
37983;SDS011;64625;50.882;4.376;2023-04-23T01:56:05;20.10;;;12.63;;
37983;SDS011;64625;50.882;4.376;2023-04-23T01:58:34;27.83;;;12.52;;
37983;SDS011;64625;50.882;4.376;2023-04-23T02:00:59;17.77;;;12.35;;
37983;SDS011;64625;50.882;4.376;2023-04-23T02:03:27;16.65;;;12.05;;
37983;SDS011;64625;50.882;4.376;2023-04-23T02:05:54;22.23;;;12.32;;
37983;SDS011;64625;50.882;4.376;2023-04-23T02:08:21;16.60;;;10.73;;
37983;SDS011;64625;50.882;4.376;2023-04-23T02:10:47;13.50;;;10.57;;
37983;SDS011;64625;50.882;4.376;2023-04-23T02:13:12;16.60;;;11.27;;
37983;SDS011;64625;50.882;4.376;2023-04-23T02:15:39;18.23;;;10.50;;
37983;SDS011;64625;50.882;4.376;2023-04-23T02:18:09;17.83;;;10.27;;
37983;SDS011;64625;50.882;4.376;2023-04-23T02:20:35;15.45;;;10.75;;
37983;SDS011;64625;50.882;4.376;2023-04-23T02:23:04;15.10;;;9.98;;
37983;SDS011;64625;50.882;4.376;2023-04-23T02:25:31;15.55;;;10.80;;
37983;SDS011;64625;50.882;4.376;2023-04-23T02:27:57;17.00;;;10.32;;
37983;SDS011;64625;50.882;4.376;2023-04-23T02:30:25;16.40;;;11.60;;
37983;SDS011;64625;50.882;4.376;2023-04-23T02:32:52;20.35;;;11.93;;
37983;SDS011;64625;50.882;4.376;2023-04-23T02:35:17;16.88;;;11.20;;
37983;SDS011;64625;50.882;4.376;2023-04-23T02:37:43;19.08;;;11.38;;
37983;SDS011;64625;50.882;4.376;2023-04-23T02:40:09;19.70;;;11.18;;
37983;SDS011;64625;50.882;4.376;2023-04-23T02:42:36;13.35;;;9.88;;
37983;SDS011;64625;50.882;4.376;2023-04-23T02:45:01;17.75;;;10.77;;
37983;SDS011;64625;50.882;4.376;2023-04-23T02:47:27;23.38;;;12.07;;
37983;SDS011;64625;50.882;4.376;2023-04-23T02:49:54;14.93;;;9.32;;
37983;SDS011;64625;50.882;4.376;2023-04-23T02:52:20;14.35;;;10.48;;
37983;SDS011;64625;50.882;4.376;2023-04-23T02:54:45;16.33;;;9.50;;
37983;SDS011;64625;50.882;4.376;2023-04-23T02:57:11;21.10;;;10.77;;
37983;SDS011;64625;50.882;4.376;2023-04-23T02:59:39;19.90;;;10.50;;
37983;SDS011;64625;50.882;4.376;2023-04-23T03:02:05;14.18;;;9.60;;
37983;SDS011;64625;50.882;4.376;2023-04-23T03:04:31;11.25;;;9.38;;
37983;SDS011;64625;50.882;4.376;2023-04-23T03:06:57;13.68;;;9.05;;
37983;SDS011;64625;50.882;4.376;2023-04-23T03:09:23;14.40;;;9.93;;
37983;SDS011;64625;50.882;4.376;2023-04-23T03:11:49;17.90;;;11.40;;
37983;SDS011;64625;50.882;4.376;2023-04-23T03:14:15;15.23;;;9.30;;
37983;SDS011;64625;50.882;4.376;2023-04-23T03:16:42;20.50;;;10.65;;
37983;SDS011;64625;50.882;4.376;2023-04-23T03:19:08;13.73;;;8.95;;
37983;SDS011;64625;50.882;4.376;2023-04-23T03:21:34;18.63;;;10.43;;
37983;SDS011;64625;50.882;4.376;2023-04-23T03:24:00;14.02;;;10.10;;
37983;SDS011;64625;50.882;4.376;2023-04-23T03:26:26;17.17;;;11.13;;
37983;SDS011;64625;50.882;4.376;2023-04-23T03:28:52;18.25;;;10.00;;
37983;SDS011;64625;50.882;4.376;2023-04-23T03:31:18;15.68;;;9.75;;
37983;SDS011;64625;50.882;4.376;2023-04-23T03:33:44;14.43;;;9.32;;
37983;SDS011;64625;50.882;4.376;2023-04-23T03:36:10;15.15;;;9.43;;
37983;SDS011;64625;50.882;4.376;2023-04-23T03:38:35;13.75;;;9.38;;
37983;SDS011;64625;50.882;4.376;2023-04-23T03:41:01;15.55;;;9.52;;
37983;SDS011;64625;50.882;4.376;2023-04-23T03:43:27;15.35;;;9.13;;
37983;SDS011;64625;50.882;4.376;2023-04-23T03:45:53;22.98;;;9.50;;
37983;SDS011;64625;50.882;4.376;2023-04-23T03:48:19;16.70;;;8.73;;
37983;SDS011;64625;50.882;4.376;2023-04-23T03:50:45;13.07;;;7.93;;
37983;SDS011;64625;50.882;4.376;2023-04-23T03:53:11;14.93;;;9.50;;
37983;SDS011;64625;50.882;4.376;2023-04-23T03:55:37;14.95;;;8.93;;
37983;SDS011;64625;50.882;4.376;2023-04-23T03:58:06;14.85;;;9.50;;
37983;SDS011;64625;50.882;4.376;2023-04-23T04:00:33;13.80;;;8.63;;
37983;SDS011;64625;50.882;4.376;2023-04-23T04:02:59;17.15;;;8.90;;
37983;SDS011;64625;50.882;4.376;2023-04-23T04:05:26;16.45;;;9.38;;
37983;SDS011;64625;50.882;4.376;2023-04-23T04:07:52;15.20;;;9.15;;
37983;SDS011;64625;50.882;4.376;2023-04-23T04:10:21;20.92;;;8.35;;
37983;SDS011;64625;50.882;4.376;2023-04-23T04:12:47;17.02;;;8.18;;
37983;SDS011;64625;50.882;4.376;2023-04-23T04:15:14;19.75;;;9.35;;
37983;SDS011;64625;50.882;4.376;2023-04-23T04:17:41;16.38;;;8.95;;
37983;SDS011;64625;50.882;4.376;2023-04-23T04:20:10;12.07;;;8.70;;
37983;SDS011;64625;50.882;4.376;2023-04-23T04:22:36;20.73;;;7.93;;
37983;SDS011;64625;50.882;4.376;2023-04-23T04:25:02;12.27;;;8.30;;
37983;SDS011;64625;50.882;4.376;2023-04-23T04:27:29;13.20;;;9.15;;
37983;SDS011;64625;50.882;4.376;2023-04-23T04:29:58;20.30;;;9.13;;
37983;SDS011;64625;50.882;4.376;2023-04-23T04:32:29;18.10;;;8.60;;
37983;SDS011;64625;50.882;4.376;2023-04-23T04:34:56;19.58;;;7.75;;
37983;SDS011;64625;50.882;4.376;2023-04-23T04:37:21;12.25;;;8.68;;
37983;SDS011;64625;50.882;4.376;2023-04-23T04:39:47;17.27;;;9.48;;
37983;SDS011;64625;50.882;4.376;2023-04-23T04:42:13;14.48;;;7.88;;
37983;SDS011;64625;50.882;4.376;2023-04-23T04:44:39;14.82;;;8.15;;
37983;SDS011;64625;50.882;4.376;2023-04-23T04:47:07;23.48;;;10.52;;
37983;SDS011;64625;50.882;4.376;2023-04-23T04:49:34;17.40;;;7.30;;
37983;SDS011;64625;50.882;4.376;2023-04-23T04:52:00;15.27;;;6.93;;
37983;SDS011;64625;50.882;4.376;2023-04-23T04:54:26;11.55;;;7.10;;
37983;SDS011;64625;50.882;4.376;2023-04-23T04:56:52;18.38;;;7.22;;
37983;SDS011;64625;50.882;4.376;2023-04-23T04:59:17;16.23;;;6.95;;
37983;SDS011;64625;50.882;4.376;2023-04-23T05:01:44;14.55;;;7.88;;
37983;SDS011;64625;50.882;4.376;2023-04-23T05:04:10;18.48;;;8.45;;
37983;SDS011;64625;50.882;4.376;2023-04-23T05:06:36;20.65;;;6.85;;
37983;SDS011;64625;50.882;4.376;2023-04-23T05:09:01;16.77;;;8.80;;
37983;SDS011;64625;50.882;4.376;2023-04-23T05:11:27;11.15;;;5.38;;
37983;SDS011;64625;50.882;4.376;2023-04-23T05:13:53;17.92;;;7.28;;
37983;SDS011;64625;50.882;4.376;2023-04-23T05:16:20;17.80;;;6.25;;
37983;SDS011;64625;50.882;4.376;2023-04-23T05:18:46;9.80;;;5.65;;
37983;SDS011;64625;50.882;4.376;2023-04-23T05:21:14;10.77;;;6.43;;
37983;SDS011;64625;50.882;4.376;2023-04-23T05:23:40;15.73;;;6.15;;
37983;SDS011;64625;50.882;4.376;2023-04-23T05:26:05;10.45;;;5.20;;
37983;SDS011;64625;50.882;4.376;2023-04-23T05:28:32;8.35;;;5.47;;
37983;SDS011;64625;50.882;4.376;2023-04-23T05:30:58;13.73;;;6.63;;
37983;SDS011;64625;50.882;4.376;2023-04-23T05:33:24;13.18;;;5.70;;
37983;SDS011;64625;50.882;4.376;2023-04-23T05:35:50;9.48;;;4.72;;
37983;SDS011;64625;50.882;4.376;2023-04-23T05:38:16;9.80;;;5.22;;
37983;SDS011;64625;50.882;4.376;2023-04-23T05:40:42;8.18;;;5.18;;
37983;SDS011;64625;50.882;4.376;2023-04-23T05:43:08;21.08;;;5.88;;
37983;SDS011;64625;50.882;4.376;2023-04-23T05:45:34;18.42;;;5.00;;
37983;SDS011;64625;50.882;4.376;2023-04-23T05:48:00;10.93;;;5.00;;
37983;SDS011;64625;50.882;4.376;2023-04-23T05:50:25;10.93;;;5.00;;
37983;SDS011;64625;50.882;4.376;2023-04-23T05:52:51;11.05;;;4.15;;
37983;SDS011;64625;50.882;4.376;2023-04-23T05:55:18;18.17;;;4.28;;
37983;SDS011;64625;50.882;4.376;2023-04-23T05:57:45;12.77;;;4.28;;
37983;SDS011;64625;50.882;4.376;2023-04-23T06:00:11;11.60;;;3.97;;
37983;SDS011;64625;50.882;4.376;2023-04-23T06:02:38;11.90;;;3.28;;
37983;SDS011;64625;50.882;4.376;2023-04-23T06:05:04;15.35;;;4.20;;
37983;SDS011;64625;50.882;4.376;2023-04-23T06:07:32;9.55;;;5.32;;
37983;SDS011;64625;50.882;4.376;2023-04-23T06:09:58;19.30;;;5.35;;
37983;SDS011;64625;50.882;4.376;2023-04-23T06:12:24;17.45;;;4.15;;
37983;SDS011;64625;50.882;4.376;2023-04-23T06:14:51;13.98;;;4.55;;
37983;SDS011;64625;50.882;4.376;2023-04-23T06:17:17;11.60;;;4.78;;
37983;SDS011;64625;50.882;4.376;2023-04-23T06:19:43;6.75;;;3.42;;
37983;SDS011;64625;50.882;4.376;2023-04-23T06:22:12;18.65;;;4.78;;
37983;SDS011;64625;50.882;4.376;2023-04-23T06:24:37;11.00;;;4.18;;
37983;SDS011;64625;50.882;4.376;2023-04-23T06:27:03;13.02;;;3.08;;
37983;SDS011;64625;50.882;4.376;2023-04-23T06:29:29;14.02;;;3.83;;
37983;SDS011;64625;50.882;4.376;2023-04-23T06:31:55;12.88;;;3.22;;
37983;SDS011;64625;50.882;4.376;2023-04-23T06:34:25;9.10;;;3.63;;
37983;SDS011;64625;50.882;4.376;2023-04-23T06:36:51;16.48;;;5.05;;
37983;SDS011;64625;50.882;4.376;2023-04-23T06:39:17;11.57;;;4.53;;
37983;SDS011;64625;50.882;4.376;2023-04-23T06:41:43;12.32;;;3.95;;
37983;SDS011;64625;50.882;4.376;2023-04-23T06:44:08;6.90;;;3.33;;
37983;SDS011;64625;50.882;4.376;2023-04-23T06:46:34;12.25;;;3.13;;
37983;SDS011;64625;50.882;4.376;2023-04-23T06:49:00;12.20;;;3.35;;
37983;SDS011;64625;50.882;4.376;2023-04-23T06:51:26;8.05;;;2.70;;
37983;SDS011;64625;50.882;4.376;2023-04-23T06:53:52;8.90;;;3.17;;
37983;SDS011;64625;50.882;4.376;2023-04-23T06:56:18;10.90;;;2.40;;
37983;SDS011;64625;50.882;4.376;2023-04-23T06:58:45;11.35;;;3.45;;
37983;SDS011;64625;50.882;4.376;2023-04-23T07:01:12;11.35;;;3.80;;
37983;SDS011;64625;50.882;4.376;2023-04-23T07:03:38;10.32;;;3.30;;
37983;SDS011;64625;50.882;4.376;2023-04-23T07:06:04;17.23;;;4.60;;
37983;SDS011;64625;50.882;4.376;2023-04-23T07:08:30;13.52;;;4.40;;
37983;SDS011;64625;50.882;4.376;2023-04-23T07:10:56;10.57;;;3.67;;
37983;SDS011;64625;50.882;4.376;2023-04-23T07:13:22;9.15;;;3.20;;
37983;SDS011;64625;50.882;4.376;2023-04-23T07:15:48;17.45;;;2.78;;
37983;SDS011;64625;50.882;4.376;2023-04-23T07:18:14;15.02;;;3.67;;
37983;SDS011;64625;50.882;4.376;2023-04-23T07:20:40;15.85;;;3.90;;
37983;SDS011;64625;50.882;4.376;2023-04-23T07:23:06;9.27;;;3.47;;
37983;SDS011;64625;50.882;4.376;2023-04-23T07:25:32;9.93;;;3.47;;
37983;SDS011;64625;50.882;4.376;2023-04-23T07:27:57;13.75;;;3.20;;
37983;SDS011;64625;50.882;4.376;2023-04-23T07:30:24;7.88;;;2.67;;
37983;SDS011;64625;50.882;4.376;2023-04-23T07:32:50;7.78;;;2.85;;
37983;SDS011;64625;50.882;4.376;2023-04-23T07:35:16;11.35;;;2.53;;
37983;SDS011;64625;50.882;4.376;2023-04-23T07:37:44;11.05;;;3.28;;
37983;SDS011;64625;50.882;4.376;2023-04-23T07:40:10;7.78;;;3.15;;
37983;SDS011;64625;50.882;4.376;2023-04-23T07:42:35;14.85;;;3.15;;
37983;SDS011;64625;50.882;4.376;2023-04-23T07:45:03;11.50;;;3.20;;
37983;SDS011;64625;50.882;4.376;2023-04-23T07:47:30;18.45;;;5.60;;
37983;SDS011;64625;50.882;4.376;2023-04-23T07:49:56;8.45;;;3.22;;
37983;SDS011;64625;50.882;4.376;2023-04-23T07:52:22;17.00;;;3.55;;
37983;SDS011;64625;50.882;4.376;2023-04-23T07:54:47;5.60;;;2.33;;
37983;SDS011;64625;50.882;4.376;2023-04-23T07:57:14;12.80;;;4.50;;
37983;SDS011;64625;50.882;4.376;2023-04-23T07:59:40;12.50;;;2.65;;
37983;SDS011;64625;50.882;4.376;2023-04-23T08:02:06;11.43;;;3.63;;
37983;SDS011;64625;50.882;4.376;2023-04-23T08:04:32;7.65;;;2.50;;
37983;SDS011;64625;50.882;4.376;2023-04-23T08:06:58;8.75;;;3.20;;
37983;SDS011;64625;50.882;4.376;2023-04-23T08:09:24;12.00;;;3.63;;
37983;SDS011;64625;50.882;4.376;2023-04-23T08:11:50;10.52;;;3.55;;
37983;SDS011;64625;50.882;4.376;2023-04-23T08:14:16;9.32;;;3.45;;
37983;SDS011;64625;50.882;4.376;2023-04-23T08:16:43;12.55;;;3.20;;
37983;SDS011;64625;50.882;4.376;2023-04-23T08:19:08;7.78;;;2.30;;
37983;SDS011;64625;50.882;4.376;2023-04-23T08:21:34;12.38;;;2.28;;
37983;SDS011;64625;50.882;4.376;2023-04-23T08:24:00;14.73;;;3.22;;
37983;SDS011;64625;50.882;4.376;2023-04-23T08:26:29;5.38;;;2.05;;
37983;SDS011;64625;50.882;4.376;2023-04-23T08:28:55;15.55;;;4.63;;
37983;SDS011;64625;50.882;4.376;2023-04-23T08:31:21;15.95;;;2.70;;
37983;SDS011;64625;50.882;4.376;2023-04-23T08:33:47;9.52;;;2.15;;
37983;SDS011;64625;50.882;4.376;2023-04-23T08:36:13;18.05;;;3.70;;
37983;SDS011;64625;50.882;4.376;2023-04-23T08:38:39;14.13;;;2.88;;
37983;SDS011;64625;50.882;4.376;2023-04-23T08:41:06;12.40;;;2.83;;
37983;SDS011;64625;50.882;4.376;2023-04-23T08:43:37;17.92;;;3.10;;
37983;SDS011;64625;50.882;4.376;2023-04-23T08:46:09;14.15;;;2.90;;
37983;SDS011;64625;50.882;4.376;2023-04-23T08:48:40;12.43;;;3.35;;
37983;SDS011;64625;50.882;4.376;2023-04-23T08:51:09;6.22;;;1.92;;
37983;SDS011;64625;50.882;4.376;2023-04-23T08:53:36;14.10;;;2.45;;
37983;SDS011;64625;50.882;4.376;2023-04-23T08:56:03;5.18;;;2.28;;
37983;SDS011;64625;50.882;4.376;2023-04-23T08:58:31;7.30;;;2.25;;
37983;SDS011;64625;50.882;4.376;2023-04-23T09:00:58;8.73;;;2.05;;
37983;SDS011;64625;50.882;4.376;2023-04-23T09:03:24;8.65;;;2.50;;
37983;SDS011;64625;50.882;4.376;2023-04-23T09:05:50;10.32;;;2.30;;
37983;SDS011;64625;50.882;4.376;2023-04-23T09:08:20;15.93;;;2.95;;
37983;SDS011;64625;50.882;4.376;2023-04-23T09:10:46;11.23;;;2.22;;
37983;SDS011;64625;50.882;4.376;2023-04-23T09:13:12;8.48;;;1.92;;
37983;SDS011;64625;50.882;4.376;2023-04-23T09:15:39;10.35;;;2.95;;
37983;SDS011;64625;50.882;4.376;2023-04-23T09:18:07;11.57;;;1.95;;
37983;SDS011;64625;50.882;4.376;2023-04-23T09:20:34;9.25;;;2.28;;
37983;SDS011;64625;50.882;4.376;2023-04-23T09:23:00;7.63;;;1.88;;
37983;SDS011;64625;50.882;4.376;2023-04-23T09:25:31;8.73;;;2.05;;
37983;SDS011;64625;50.882;4.376;2023-04-23T09:27:57;10.57;;;2.13;;
37983;SDS011;64625;50.882;4.376;2023-04-23T09:30:25;7.32;;;1.92;;
37983;SDS011;64625;50.882;4.376;2023-04-23T09:32:51;7.22;;;2.33;;
37983;SDS011;64625;50.882;4.376;2023-04-23T09:35:17;9.80;;;3.08;;
37983;SDS011;64625;50.882;4.376;2023-04-23T09:37:46;13.93;;;2.50;;
37983;SDS011;64625;50.882;4.376;2023-04-23T09:40:14;4.97;;;1.80;;
37983;SDS011;64625;50.882;4.376;2023-04-23T09:42:46;8.60;;;1.80;;
37983;SDS011;64625;50.882;4.376;2023-04-23T09:45:14;12.88;;;1.88;;
37983;SDS011;64625;50.882;4.376;2023-04-23T09:47:46;13.13;;;3.03;;
37983;SDS011;64625;50.882;4.376;2023-04-23T09:50:36;6.82;;;1.75;;
37983;SDS011;64625;50.882;4.376;2023-04-23T09:53:07;5.72;;;1.70;;
37983;SDS011;64625;50.882;4.376;2023-04-23T09:55:34;11.10;;;1.83;;
37983;SDS011;64625;50.882;4.376;2023-04-23T09:58:03;5.15;;;2.17;;
37983;SDS011;64625;50.882;4.376;2023-04-23T10:00:39;6.50;;;1.60;;
37983;SDS011;64625;50.882;4.376;2023-04-23T10:03:06;9.95;;;3.28;;
37983;SDS011;64625;50.882;4.376;2023-04-23T10:05:37;14.45;;;2.55;;
37983;SDS011;64625;50.882;4.376;2023-04-23T10:08:05;11.32;;;2.15;;
37983;SDS011;64625;50.882;4.376;2023-04-23T10:10:31;10.13;;;2.25;;
37983;SDS011;64625;50.882;4.376;2023-04-23T10:12:59;6.22;;;2.42;;
37983;SDS011;64625;50.882;4.376;2023-04-23T10:15:25;8.13;;;2.97;;
37983;SDS011;64625;50.882;4.376;2023-04-23T10:17:54;10.00;;;2.60;;
37983;SDS011;64625;50.882;4.376;2023-04-23T10:20:21;8.75;;;2.15;;
37983;SDS011;64625;50.882;4.376;2023-04-23T10:22:48;6.88;;;1.67;;
37983;SDS011;64625;50.882;4.376;2023-04-23T10:25:18;10.25;;;1.85;;
37983;SDS011;64625;50.882;4.376;2023-04-23T10:27:45;10.85;;;2.53;;
37983;SDS011;64625;50.882;4.376;2023-04-23T10:30:14;9.23;;;2.10;;
37983;SDS011;64625;50.882;4.376;2023-04-23T10:32:40;6.22;;;1.90;;
37983;SDS011;64625;50.882;4.376;2023-04-23T10:35:06;8.05;;;1.90;;
37983;SDS011;64625;50.882;4.376;2023-04-23T10:37:33;6.97;;;2.00;;
37983;SDS011;64625;50.882;4.376;2023-04-23T10:40:07;18.52;;;2.20;;
37983;SDS011;64625;50.882;4.376;2023-04-23T10:42:37;6.88;;;2.40;;
37983;SDS011;64625;50.882;4.376;2023-04-23T10:45:14;9.77;;;1.88;;
37983;SDS011;64625;50.882;4.376;2023-04-23T10:47:44;16.23;;;5.10;;
37983;SDS011;64625;50.882;4.376;2023-04-23T10:50:21;15.85;;;2.97;;
37983;SDS011;64625;50.882;4.376;2023-04-23T10:52:50;15.25;;;2.55;;
37983;SDS011;64625;50.882;4.376;2023-04-23T10:55:18;7.32;;;2.13;;
37983;SDS011;64625;50.882;4.376;2023-04-23T10:58:04;9.77;;;2.38;;
37983;SDS011;64625;50.882;4.376;2023-04-23T11:06:11;7.68;;;1.58;;
37983;SDS011;64625;50.882;4.376;2023-04-23T11:08:52;10.98;;;2.20;;
37983;SDS011;64625;50.882;4.376;2023-04-23T11:11:24;10.07;;;2.15;;
37983;SDS011;64625;50.882;4.376;2023-04-23T11:14:09;13.45;;;3.80;;
37983;SDS011;64625;50.882;4.376;2023-04-23T11:16:38;7.22;;;2.72;;
37983;SDS011;64625;50.882;4.376;2023-04-23T11:19:08;13.73;;;2.20;;
37983;SDS011;64625;50.882;4.376;2023-04-23T11:24:30;12.32;;;3.08;;
37983;SDS011;64625;50.882;4.376;2023-04-23T11:26:57;7.57;;;1.85;;
37983;SDS011;64625;50.882;4.376;2023-04-23T11:29:24;6.60;;;2.47;;
37983;SDS011;64625;50.882;4.376;2023-04-23T11:31:52;10.00;;;2.65;;
37983;SDS011;64625;50.882;4.376;2023-04-23T11:34:19;12.70;;;2.83;;
37983;SDS011;64625;50.882;4.376;2023-04-23T11:36:47;6.97;;;1.77;;
37983;SDS011;64625;50.882;4.376;2023-04-23T11:39:16;5.53;;;1.67;;
37983;SDS011;64625;50.882;4.376;2023-04-23T11:41:43;6.90;;;1.80;;
37983;SDS011;64625;50.882;4.376;2023-04-23T11:44:11;8.23;;;3.13;;
37983;SDS011;64625;50.882;4.376;2023-04-23T11:46:37;15.07;;;2.70;;
37983;SDS011;64625;50.882;4.376;2023-04-23T11:49:03;5.63;;;2.75;;
37983;SDS011;64625;50.882;4.376;2023-04-23T11:51:30;6.45;;;1.55;;
37983;SDS011;64625;50.882;4.376;2023-04-23T11:54:03;3.72;;;2.00;;
37983;SDS011;64625;50.882;4.376;2023-04-23T11:56:30;15.43;;;4.80;;
37983;SDS011;64625;50.882;4.376;2023-04-23T11:59:00;8.13;;;2.45;;
37983;SDS011;64625;50.882;4.376;2023-04-23T12:01:42;6.57;;;2.03;;
37983;SDS011;64625;50.882;4.376;2023-04-23T12:04:15;6.28;;;2.72;;
37983;SDS011;64625;50.882;4.376;2023-04-23T12:06:46;6.53;;;2.50;;
37983;SDS011;64625;50.882;4.376;2023-04-23T12:09:14;8.18;;;2.17;;
37983;SDS011;64625;50.882;4.376;2023-04-23T12:11:41;9.10;;;2.80;;
37983;SDS011;64625;50.882;4.376;2023-04-23T12:14:10;10.80;;;2.33;;
37983;SDS011;64625;50.882;4.376;2023-04-23T12:16:46;13.82;;;3.65;;
37983;SDS011;64625;50.882;4.376;2023-04-23T12:19:20;8.63;;;2.17;;
37983;SDS011;64625;50.882;4.376;2023-04-23T12:21:51;12.02;;;3.00;;
37983;SDS011;64625;50.882;4.376;2023-04-23T12:24:24;10.25;;;2.20;;
37983;SDS011;64625;50.882;4.376;2023-04-23T12:26:52;7.30;;;2.65;;
37983;SDS011;64625;50.882;4.376;2023-04-23T12:29:23;12.13;;;2.53;;
37983;SDS011;64625;50.882;4.376;2023-04-23T12:31:50;8.77;;;3.50;;
37983;SDS011;64625;50.882;4.376;2023-04-23T12:34:18;8.13;;;2.05;;
37983;SDS011;64625;50.882;4.376;2023-04-23T12:36:48;10.40;;;4.93;;
37983;SDS011;64625;50.882;4.376;2023-04-23T12:42:02;10.48;;;3.85;;
37983;SDS011;64625;50.882;4.376;2023-04-23T12:44:29;16.40;;;2.50;;
37983;SDS011;64625;50.882;4.376;2023-04-23T12:49:23;9.90;;;2.30;;
37983;SDS011;64625;50.882;4.376;2023-04-23T12:51:50;10.82;;;1.88;;
37983;SDS011;64625;50.882;4.376;2023-04-23T12:54:17;9.57;;;2.10;;
37983;SDS011;64625;50.882;4.376;2023-04-23T12:56:43;7.00;;;1.75;;
37983;SDS011;64625;50.882;4.376;2023-04-23T12:59:09;9.57;;;2.20;;
37983;SDS011;64625;50.882;4.376;2023-04-23T13:01:35;4.95;;;1.63;;
37983;SDS011;64625;50.882;4.376;2023-04-23T13:04:01;4.07;;;2.58;;
37983;SDS011;64625;50.882;4.376;2023-04-23T13:06:27;4.90;;;1.77;;
37983;SDS011;64625;50.882;4.376;2023-04-23T13:08:54;4.47;;;2.13;;
37983;SDS011;64625;50.882;4.376;2023-04-23T13:11:20;5.18;;;2.20;;
37983;SDS011;64625;50.882;4.376;2023-04-23T13:13:46;2.72;;;1.70;;
37983;SDS011;64625;50.882;4.376;2023-04-23T13:16:12;4.47;;;2.17;;
37983;SDS011;64625;50.882;4.376;2023-04-23T13:18:39;8.55;;;2.33;;
37983;SDS011;64625;50.882;4.376;2023-04-23T13:21:05;7.90;;;2.28;;
37983;SDS011;64625;50.882;4.376;2023-04-23T13:23:30;4.80;;;1.80;;
37983;SDS011;64625;50.882;4.376;2023-04-23T13:25:56;9.55;;;2.58;;
37983;SDS011;64625;50.882;4.376;2023-04-23T13:28:22;5.82;;;2.45;;
37983;SDS011;64625;50.882;4.376;2023-04-23T13:30:48;3.33;;;1.70;;
37983;SDS011;64625;50.882;4.376;2023-04-23T13:33:14;3.55;;;1.65;;
37983;SDS011;64625;50.882;4.376;2023-04-23T13:35:41;2.40;;;2.10;;
37983;SDS011;64625;50.882;4.376;2023-04-23T13:38:07;4.07;;;1.60;;
37983;SDS011;64625;50.882;4.376;2023-04-23T13:40:33;5.68;;;2.58;;
37983;SDS011;64625;50.882;4.376;2023-04-23T13:43:00;8.73;;;2.13;;
37983;SDS011;64625;50.882;4.376;2023-04-23T13:45:25;7.00;;;2.03;;
37983;SDS011;64625;50.882;4.376;2023-04-23T13:47:52;3.17;;;2.35;;
37983;SDS011;64625;50.882;4.376;2023-04-23T13:50:17;7.07;;;1.98;;
37983;SDS011;64625;50.882;4.376;2023-04-23T13:52:43;3.35;;;1.70;;
37983;SDS011;64625;50.882;4.376;2023-04-23T13:55:09;3.72;;;1.70;;
37983;SDS011;64625;50.882;4.376;2023-04-23T13:57:35;3.72;;;2.10;;
37983;SDS011;64625;50.882;4.376;2023-04-23T14:00:03;6.82;;;1.75;;
37983;SDS011;64625;50.882;4.376;2023-04-23T14:02:29;5.78;;;1.77;;
37983;SDS011;64625;50.882;4.376;2023-04-23T14:04:55;6.30;;;2.30;;
37983;SDS011;64625;50.882;4.376;2023-04-23T14:07:23;6.70;;;2.15;;
37983;SDS011;64625;50.882;4.376;2023-04-23T14:09:48;5.22;;;1.95;;
37983;SDS011;64625;50.882;4.376;2023-04-23T14:12:18;4.38;;;1.60;;
37983;SDS011;64625;50.882;4.376;2023-04-23T14:14:44;6.05;;;2.60;;
37983;SDS011;64625;50.882;4.376;2023-04-23T14:17:10;3.75;;;1.70;;
37983;SDS011;64625;50.882;4.376;2023-04-23T14:19:35;4.90;;;2.25;;
37983;SDS011;64625;50.882;4.376;2023-04-23T14:22:02;9.18;;;2.53;;
37983;SDS011;64625;50.882;4.376;2023-04-23T14:24:33;4.85;;;2.15;;
37983;SDS011;64625;50.882;4.376;2023-04-23T14:27:04;7.38;;;2.28;;
37983;SDS011;64625;50.882;4.376;2023-04-23T14:29:33;5.22;;;2.65;;
37983;SDS011;64625;50.882;4.376;2023-04-23T14:32:04;4.60;;;2.42;;
37983;SDS011;64625;50.882;4.376;2023-04-23T14:34:34;2.92;;;2.33;;
37983;SDS011;64625;50.882;4.376;2023-04-23T14:37:00;7.75;;;3.25;;
37983;SDS011;64625;50.882;4.376;2023-04-23T14:39:30;6.80;;;3.75;;
37983;SDS011;64625;50.882;4.376;2023-04-23T14:41:57;7.25;;;2.83;;
37983;SDS011;64625;50.882;4.376;2023-04-23T14:44:23;5.90;;;2.25;;
37983;SDS011;64625;50.882;4.376;2023-04-23T14:46:51;9.30;;;2.85;;
37983;SDS011;64625;50.882;4.376;2023-04-23T14:49:17;10.52;;;2.67;;